• Join FlightAware (Why Join?)
  • Login
  • US Flag 
06:15AM EST


 

Airport Tracker/Info


-or-


 

Live Flight TrackerFlight Track Log ✈ EJA941 ✈ 02-May-2013 ✈ KIAH - KSFO

Flight Track Log - Related Links

Times and Time Zones

All times are in EDT time to prevent confusion due to time zone crossing. See the EJA941 flight status page for this flight to view local times or setup timezone preferences in your user account.

Time Position Orientation Groundspeed Altitude Reporting Facility
EDT Latitude Longitude Course Direction KTS MPH feet Rate Location/Type
04:30PM 29.9778 -95.3344 268° West 206 237 600  Level Houston Center
04:31PM 29.9767 -95.3681 268° West 200 230 2,300 2,640 Climbing Houston Center
04:31PM 29.9700 -95.4100 260° West 254 292 3,600 2,880 Climbing Houston Center
04:32PM 29.9736 -95.4458 277° West 241 277 5,300 3,900 Climbing Houston Center
04:32PM 29.9819 -95.4956 281° West 270 311 7,600 3,900 Climbing Houston Center
04:33PM 29.9878 -95.5303 281° West 268 308 9,400 3,900 Climbing Houston Center
04:33PM 29.9931 -95.5736 278° West 269 310 11,200 2,880 Climbing Houston Center
04:34PM 30.0050 -95.6394 282° West 295 339 12,400 1,740 Climbing Houston Center
04:35PM 30.0219 -95.7478 280° West 338 389 14,300 1,560 Climbing Houston Center
04:36PM 30.0400 -95.8614 280° West 357 411 15,700 1,320 Climbing Houston Center
04:37PM 30.0572 -95.9756 280° West 363 418 17,100 1,320 Climbing Houston Center
04:38PM 30.0756 -96.0906 280° West 373 429 18,500 1,500 Climbing Houston Center
04:39PM 30.0975 -96.2319 280° West 375 432 20,200 1,260 Climbing Houston Center
04:41PM 30.1224 -96.4293 276° West  Level FlightAware Approximate
04:44PM 30.2050 -96.8825 279° West 424 488 26,400  Level Houston Center
04:45PM 30.2331 -97.0169 278° West 427 491 27,700 1,200 Climbing Houston Center
04:46PM 30.2721 -97.0405 278° West  Level Estimated
04:46PM 30.2669 -97.1775 284° West 434 499 28,900  Level Houston Center
04:47PM 30.2969 -97.3192 284° West 446 513 30,200 1,500 Climbing Houston Center
04:48PM 30.2582 -97.3739 279° West  Level FlightAware Approximate
04:48PM 30.3250 -97.4606 283° West 444 511 32,100  Level Houston Center
04:49PM 30.2771 -97.5094 279° West  Level FlightAware Approximate
04:49PM 30.3542 -97.5978 284° West 435 501 34,600  Level Houston Center
04:50PM 30.2957 -97.6449 279° West  Level FlightAware Approximate
04:50PM 30.3808 -97.7303 283° West 420 483 36,400  Level Houston Center
04:51PM 30.4086 -97.8628 284° West 419 482 38,000 1,440 Climbing Houston Center
04:53PM 30.6346 -97.9061 278° West  Level Estimated
04:53PM 30.4336 -97.9903 283° West 406 467 39,500  Level Houston Center
04:54PM 30.4600 -98.1189 283° West 404 465 41,100 1,020 Climbing Houston Center
04:55PM 30.4886 -98.2672 283° West 403 464 41,700 420 Climbing Houston Center
04:56PM 30.5144 -98.3972 283° West 407 468 42,000 480 Climbing Houston Center
04:57PM 30.5408 -98.5300 283° West 416 479 42,800 480 Climbing Houston Center
04:58PM 30.5667 -98.6631 283° West 417 480 43,000 60 Climbing Houston Center
04:59PM 30.5939 -98.7994 283° West 429 494 43,000  Level Houston Center
05:00PM 30.6217 -98.9394 283° West 440 506 43,000  Level Houston Center
05:01PM 30.6486 -99.0814 282° West 444 511 43,000  Level Houston Center
05:02PM 30.6767 -99.2303 282° West 446 513 43,000  Level Houston Center
05:03PM 30.7044 -99.3706 283° West 447 514 43,000  Level Houston Center
05:04PM 30.7311 -99.5106 283° West 447 514 43,000  Level Houston Center
05:05PM 30.7628 -99.6794 282° West 448 516 43,000  Level Houston Center
05:06PM 30.7889 -99.8211 282° West 451 519 43,000  Level Houston Center
05:07PM 30.8153 -99.9628 282° West 453 521 43,000  Level Houston Center
05:08PM 30.8403 -100.1050 282° West 451 519 43,000  Level Houston Center
05:09PM 30.8669 -100.2439 283° West 445 512 43,000  Level Houston Center
05:10PM 30.8981 -100.4139 282° West 454 522 43,000  Level Houston Center
05:11PM 30.9228 -100.5544 282° West 447 514 43,000  Level Houston Center
05:12PM 30.9475 -100.6956 282° West 444 511 43,000  Level Houston Center
05:13PM 30.9728 -100.8397 282° West 459 528 43,000  Level Houston Center
05:14PM 30.9986 -100.9831 282° West 465 535 43,000  Level Houston Center
05:15PM 31.0286 -101.1542 282° West 455 524 43,000  Level Houston Center
05:16PM 31.0561 -101.2942 283° West 450 518 43,000  Level Houston Center
05:17PM 31.0697 -101.3875 280° West 453 521 43,000  Level Albuquerque Center
05:18PM 31.0992 -101.5586 281° West 450 518 43,000  Level Albuquerque Center
05:19PM 31.1231 -101.7017 281° West 450 518 43,000  Level Albuquerque Center
05:20PM 31.1469 -101.8447 281° West 449 517 43,000  Level Albuquerque Center
05:21PM 31.1722 -102.0042 281° West 463 533 43,000  Level Albuquerque Center
05:22PM 31.1969 -102.1475 281° West 454 522 43,000  Level Albuquerque Center
05:23PM 31.2203 -102.2892 281° West 448 516 43,000  Level Albuquerque Center
05:24PM 31.2428 -102.4289 281° West 441 507 43,000  Level Albuquerque Center
05:25PM 31.2650 -102.5689 281° West 440 506 43,000  Level Albuquerque Center
05:26PM 31.2883 -102.7108 281° West 442 509 43,000  Level Albuquerque Center
05:27PM 31.3158 -102.8797 281° West 442 509 43,000  Level Albuquerque Center
05:28PM 31.3383 -103.0206 281° West 442 509 43,000  Level Albuquerque Center
05:29PM 31.3608 -103.1606 281° West 440 506 43,000  Level Albuquerque Center
05:30PM 31.3825 -103.3011 280° West 440 506 43,000  Level Albuquerque Center
05:32PM 31.4039 -103.4411 280° West 439 505 43,000  Level Albuquerque Center
05:33PM 31.4247 -103.5814 280° West 439 505 43,000  Level Albuquerque Center
05:34PM 31.4528 -103.7478 281° West 436 502 43,000  Level Albuquerque Center
05:35PM 31.4694 -103.8669 279° West 434 499 43,000  Level Albuquerque Center
05:36PM 31.4903 -104.0061 280° West 435 501 43,000  Level Albuquerque Center
05:37PM 31.5181 -104.1736 281° West 437 503 43,000  Level Albuquerque Center
05:38PM 31.5389 -104.3122 280° West 436 502 43,000  Level Albuquerque Center
05:39PM 31.5581 -104.4508 279° West 434 499 43,000  Level Albuquerque Center
05:40PM 31.5792 -104.5900 280° West 435 501 43,000  Level Albuquerque Center
05:41PM 31.6003 -104.7272 280° West 432 497 43,000  Level Albuquerque Center
05:42PM 31.6203 -104.8647 280° West 431 496 43,000  Level Albuquerque Center
05:43PM 31.6439 -105.0300 280° West 431 496 43,000  Level Albuquerque Center
05:44PM 31.6631 -105.1667 279° West 428 493 43,000 -480 Level Albuquerque Center
05:45PM 31.6839 -105.3056 280° West 433 498 42,100 -960 Descending Albuquerque Center
05:46PM 31.7028 -105.4517 279° West 451 519 41,100 -1,020 Descending Albuquerque Center
05:47PM 31.7228 -105.5986 279° West 458 527 40,100 -540 Descending Albuquerque Center
05:48PM 31.7481 -105.7711 280° West 449 517 40,000 -60 Descending Albuquerque Center
05:49PM 31.7669 -105.9139 279° West 446 513 40,000  Level Albuquerque Center
05:50PM 31.7864 -106.0569 279° West 446 513 40,000  Level Albuquerque Center
05:51PM 31.8067 -106.1989 280° West 443 510 40,000  Level Albuquerque Center
05:52PM 31.8275 -106.3442 280° West 449 517 40,000  Level Albuquerque Center
05:53PM 31.8483 -106.4886 280° West 450 518 40,000  Level Albuquerque Center
05:54PM 31.8722 -106.6564 280° West 451 519 40,000  Level Albuquerque Center
05:55PM 31.8939 -106.8000 280° West 447 514 40,000  Level Albuquerque Center
05:56PM 31.9153 -106.9450 280° West 448 516 40,000  Level Albuquerque Center
05:57PM 31.9353 -107.0928 279° West 453 521 40,000  Level Albuquerque Center
05:58PM 31.9564 -107.2403 280° West 454 522 40,000  Level Albuquerque Center
05:59PM 31.9761 -107.3883 279° West 455 524 40,000  Level Albuquerque Center
06:00PM 31.9967 -107.5369 279° West 457 526 40,000  Level Albuquerque Center
06:01PM 32.0172 -107.6844 279° West 456 525 40,000  Level Albuquerque Center
06:02PM 32.0408 -107.8589 279° West 450 518 40,000  Level Albuquerque Center
06:03PM 32.0606 -108.0064 279° West 452 520 40,000  Level Albuquerque Center
06:04PM 32.0808 -108.1572 279° West 455 524 40,000  Level Albuquerque Center
06:05PM 32.1008 -108.3047 279° West 456 525 40,000  Level Albuquerque Center
06:07PM 32.1197 -108.4517 279° West 456 525 40,000  Level Albuquerque Center
06:08PM 32.1392 -108.6011 279° West 459 528 40,000  Level Albuquerque Center
06:09PM 32.1575 -108.7497 278° West 461 531 40,000  Level Albuquerque Center
06:10PM 32.1803 -108.9272 279° West 460 529 40,000  Level Albuquerque Center
06:11PM 32.1989 -109.0761 278° West 459 528 40,000  Level Albuquerque Center
06:12PM 32.2175 -109.2250 278° West 460 529 40,000  Level Albuquerque Center
06:13PM 32.2364 -109.3725 279° West 459 528 40,000  Level Albuquerque Center
06:14PM 32.2547 -109.5228 278° West 463 533 40,000  Level Albuquerque Center
06:15PM 32.2714 -109.6711 278° West 461 531 40,000  Level Albuquerque Center
06:16PM 32.2947 -109.8478 279° West 457 526 40,000  Level Albuquerque Center
06:17PM 32.3350 -109.9892 289° West 460 529 40,000  Level Albuquerque Center
06:18PM 32.3808 -110.1322 291° West 465 535 40,000  Level Albuquerque Center
06:19PM 32.4222 -110.2733 289° West 460 529 40,000  Level Albuquerque Center
06:20PM 32.4636 -110.4142 289° West 460 529 40,000  Level Albuquerque Center
06:21PM 32.5050 -110.5567 289° West 460 529 40,000  Level Albuquerque Center
06:22PM 32.5556 -110.7250 290° West 456 525 40,000  Level Albuquerque Center
06:23PM 32.5972 -110.8689 289° West 457 526 40,000  Level Albuquerque Center
06:24PM 32.6381 -111.0122 289° West 459 528 40,000  Level Albuquerque Center
06:25PM 32.6797 -111.1567 289° West 461 531 40,000  Level Albuquerque Center
06:26PM 32.7197 -111.3000 288° West 459 528 40,000  Level Albuquerque Center
06:27PM 32.7617 -111.4414 289° West 454 522 40,000  Level Albuquerque Center
06:28PM 32.8028 -111.5864 289° West 461 531 40,000  Level Albuquerque Center
06:29PM 32.8503 -111.7597 288° West 460 529 40,000  Level Albuquerque Center
06:30PM 32.8897 -111.9053 288° West 461 531 40,000  Level Albuquerque Center
06:31PM 32.9306 -112.0508 289° West 462 532 40,000  Level Albuquerque Center
06:32PM 32.9703 -112.1958 288° West 461 531 40,000  Level Albuquerque Center
06:33PM 33.0125 -112.3506 288° West 464 534 40,000  Level Albuquerque Center
06:34PM 33.0533 -112.4972 288° West 468 539 40,000  Level Albuquerque Center
06:35PM 33.0947 -112.6425 289° West 466 536 40,000  Level Albuquerque Center
06:36PM 33.1367 -112.7878 289° West 466 536 40,000  Level Albuquerque Center
06:37PM 33.1856 -112.9636 288° West 469 540 40,000  Level Albuquerque Center
06:38PM 33.2278 -113.1114 289° West 472 543 40,000  Level Albuquerque Center
06:40PM 33.2683 -113.2592 288° West 471 542 40,000  Level Albuquerque Center
06:41PM 33.3086 -113.4075 288° West 471 542 40,000  Level Albuquerque Center
06:42PM 33.3492 -113.5550 288° West 471 542 40,000  Level Albuquerque Center
06:43PM 33.3908 -113.7019 289° West 470 541 40,000  Level Albuquerque Center
06:44PM 33.4281 -113.8853 284° West 474 545 40,000  Level Albuquerque Center
06:45PM 33.4542 -114.0394 282° West 473 544 40,000  Level Albuquerque Center
06:46PM 33.4839 -114.1908 283° West 471 542 40,000  Level Albuquerque Center
06:47PM 33.5142 -114.3422 284° West 469 540 40,000  Level Albuquerque Center
06:48PM 33.5458 -114.4947 284° West 472 543 40,000  Level Albuquerque Center
06:49PM 33.5892 -114.6497 289° West 471 542 40,000  Level Los Angeles Center
06:50PM 33.6364 -114.8294 288° West 472 543 40,000  Level Los Angeles Center
06:51PM 33.6747 -114.9803 287° West 473 544 40,000  Level Los Angeles Center
06:52PM 33.7150 -115.1311 288° West 476 548 40,000  Level Los Angeles Center
06:53PM 33.7531 -115.2825 287° West 475 547 40,000  Level Los Angeles Center
06:54PM 33.7908 -115.4333 287° West 475 547 40,000  Level Los Angeles Center
06:55PM 33.8378 -115.6156 287° West 478 550 40,000  Level Los Angeles Center
06:56PM 33.8767 -115.7669 287° West 476 548 40,000  Level Los Angeles Center
06:57PM 33.9144 -115.9186 287° West 475 547 40,000  Level Los Angeles Center
06:58PM 33.9522 -116.0717 287° West 479 551 40,000  Level Los Angeles Center
06:59PM 33.9908 -116.2236 287° West 477 549 40,000  Level Los Angeles Center
07:00PM 34.0364 -116.4075 287° West 481 554 40,000  Level Los Angeles Center
07:01PM 34.0739 -116.5597 287° West 478 550 40,000  Level Los Angeles Center
07:02PM 34.1111 -116.7139 286° West 480 552 40,000  Level Los Angeles Center
07:03PM 34.1467 -116.8619 286° West 478 550 40,000  Level Los Angeles Center
07:04PM 34.1842 -117.0175 286° West 482 555 40,000  Level Los Angeles Center
07:05PM 34.2272 -117.1964 286° West 484 557 40,000  Level Los Angeles Center
07:06PM 34.2647 -117.3517 286° West 483 556 40,000  Level Los Angeles Center
07:07PM 34.3017 -117.5072 286° West 484 557 40,000  Level Los Angeles Center
07:08PM 34.3378 -117.6636 286° West 486 559 40,000  Level Los Angeles Center
07:10PM 34.3831 -117.8525 286° West 490 564 40,000  Level Los Angeles Center
07:11PM 34.4164 -117.9958 286° West 490 564 40,000  Level Los Angeles Center
07:12PM 34.4875 -118.1547 299° West 492 566 40,000  Level Los Angeles Center
07:13PM 34.5589 -118.2947 302° West 491 565 40,000  Level Los Angeles Center
07:14PM 34.6386 -118.4553 301° West 490 564 40,000  Level Los Angeles Center
07:15PM 34.7133 -118.6036 302° West 488 562 40,000  Level Los Angeles Center
07:16PM 34.7850 -118.7442 302° West 491 565 40,000  Level Los Angeles Center
07:17PM 34.8569 -118.8867 302° West 499 574 40,000  Level Los Angeles Center
07:18PM 34.9361 -119.0428 302° West 487 560 40,000  Level Los Angeles Center
07:19PM 35.0064 -119.1850 301° West 490 564 40,000  Level Los Angeles Center
07:20PM 35.0772 -119.3281 301° West 492 566 40,000  Level Los Angeles Center
07:21PM 35.1506 -119.4714 302° West 499 574 40,000  Level Los Angeles Center
07:22PM 35.2189 -119.6139 300° West 490 564 40,000  Level Los Angeles Center
07:23PM 35.3025 -119.7850 301° West 485 558 40,000  Level Los Angeles Center
07:24PM 35.3714 -119.9272 301° West 485 558 40,000  Level Los Angeles Center
07:25PM 35.4264 -120.0414 301° West 495 570 40,000  Level Oakland Center
07:26PM 35.5094 -120.2125 301° West 498 573 40,000  Level Oakland Center
07:27PM 35.5769 -120.3542 300° West 496 571 40,000  Level Oakland Center
07:28PM 35.6436 -120.4975 300° West 492 566 40,000  Level Oakland Center
07:29PM 35.7114 -120.6408 300° West 492 566 40,000  Level Oakland Center
07:30PM 35.7797 -120.7853 300° West 492 566 40,000  Level Oakland Center
07:31PM 35.8475 -120.9306 300° West 492 566 40,000  Level Oakland Center
07:32PM 35.9292 -121.1056 300° West 492 566 40,000  Level Oakland Center
07:33PM 35.9967 -121.2519 300° West 493 567 40,000  Level Oakland Center
07:34PM 36.0647 -121.3978 300° West 492 566 40,000 -1,020 Level Oakland Center
07:35PM 36.1472 -121.5225 309° West 491 565 38,000 -2,760 Descending Oakland Center
07:36PM 36.2628 -121.6058 330° Northwest 488 562 34,400 -3,600 Descending Oakland Center
07:37PM 36.3817 -121.6944 329° Northwest 505 581 30,700 -3,660 Descending Oakland Center
07:38PM 36.5008 -121.7844 329° Northwest 508 585 26,900 -4,080 Descending Oakland Center
07:39PM 36.5667 -121.8333 329° Northwest 495 570 25,000 -3,240 Descending Northern Cal TRACON
07:40PM 36.6833 -121.9000 335° Northwest 449 517 22,500 -2,580 Descending Northern Cal TRACON
07:41PM 36.7833 -121.9500 338° Northwest 395 455 19,900 -2,520 Descending Northern Cal TRACON
07:42PM 36.8833 -121.9833 345° North 366 421 17,500 -2,460 Descending Northern Cal TRACON
07:42PM 36.9506 -121.9994 349° North 359 413 15,700 -2,400 Descending Oakland Center
07:43PM 37.0406 -122.0303 345° North 339 390 13,400 -2,280 Descending Oakland Center
07:44PM 37.1275 -122.0597 345° North 324 373 11,100 -1,680 Descending Oakland Center
07:45PM 37.2128 -122.0861 346° North 315 362 10,000 -1,380 Descending Oakland Center
07:46PM 37.2917 -122.1089 347° North 293 337 8,300 -1,500 Descending Oakland Center
07:47PM 37.3675 -122.1278 349° North 281 323 7,000 -1,500 Descending Oakland Center
07:48PM 37.4414 -122.1456 349° North 273 314 5,300 -1,500 Descending Oakland Center
07:50PM 37.5092 -122.1658 347° North 260 299 4,000 -1,320 Descending Oakland Center
07:51PM 37.5653 -122.2086 329° Northwest 224 258 2,700 -1,140 Descending Oakland Center
07:52PM 37.5836 -122.2683 291° West 198 228 1,700 -960 Descending Oakland Center
07:53PM 37.5967 -122.3194 288° West 174 200 800 -780 Descending Oakland Center
07:54PM 37.6111 -122.3631 293° West 153 176 200 -600 Descending Oakland Center
07:56PM 37.6167 -122.3667 322° Northwest  Level FlightAware Approximate